createdAt,value
2023-03-17T00:01:55.112Z,-0.50
2023-03-17T00:04:25.234Z,-0.60
2023-03-17T00:06:53.253Z,-0.50
2023-03-17T00:09:22.708Z,-0.50
2023-03-17T00:11:50.907Z,-0.60
2023-03-17T00:14:19.969Z,-0.60
2023-03-17T00:16:50.563Z,-0.60
2023-03-17T00:19:33.109Z,-0.60
2023-03-17T00:22:02.538Z,-0.70
2023-03-17T00:24:30.558Z,-0.60
2023-03-17T00:26:58.348Z,-0.70
2023-03-17T00:29:27.009Z,-0.60
2023-03-17T00:31:57.064Z,-0.70
2023-03-17T00:34:24.784Z,-0.70
2023-03-17T00:36:52.609Z,-0.70
2023-03-17T00:39:20.905Z,-0.80
2023-03-17T00:41:49.390Z,-0.60
2023-03-17T00:44:19.752Z,-0.70
2023-03-17T00:47:08.810Z,-0.70
2023-03-17T00:49:36.891Z,-0.80
2023-03-17T00:52:04.990Z,-0.80
2023-03-17T00:54:32.770Z,-0.70
2023-03-17T00:57:00.672Z,-0.50
2023-03-17T00:59:35.555Z,-0.70
2023-03-17T01:02:03.334Z,-0.60
2023-03-17T01:04:31.000Z,-0.70
2023-03-17T01:06:58.727Z,-0.60
2023-03-17T01:09:27.708Z,-0.70
2023-03-17T01:11:55.916Z,-0.60
2023-03-17T01:14:25.043Z,-0.70
2023-03-17T01:16:55.910Z,-0.70
2023-03-17T01:19:23.982Z,-0.70
2023-03-17T01:21:52.543Z,-0.60
2023-03-17T01:24:20.564Z,-0.60
2023-03-17T01:26:48.233Z,-0.50
2023-03-17T01:29:16.640Z,-0.60
2023-03-17T01:31:45.488Z,-0.60
2023-03-17T01:34:13.163Z,-0.50
2023-03-17T01:36:41.655Z,-0.60
2023-03-17T01:39:10.067Z,-0.50
2023-03-17T01:41:40.302Z,-0.60
2023-03-17T01:44:14.761Z,-0.70
2023-03-17T01:46:42.482Z,-0.80
2023-03-17T01:49:17.438Z,-0.80
2023-03-17T01:51:49.997Z,-0.80
2023-03-17T01:54:41.185Z,-0.90
2023-03-17T01:57:28.683Z,-0.80
2023-03-17T02:00:06.393Z,-0.80
2023-03-17T02:02:44.039Z,-0.90
2023-03-17T02:05:15.883Z,-0.90
2023-03-17T02:07:45.149Z,-1.00
2023-03-17T02:10:16.101Z,-0.90
2023-03-17T02:12:46.018Z,-1.00
2023-03-17T02:15:14.079Z,-0.90
2023-03-17T02:17:41.740Z,-0.80
2023-03-17T02:20:16.447Z,-0.90
2023-03-17T02:22:45.540Z,-0.90
2023-03-17T02:25:16.920Z,-0.90
2023-03-17T02:27:48.125Z,-0.90
2023-03-17T02:30:20.703Z,-1.00
2023-03-17T02:32:48.365Z,-1.00
2023-03-17T02:35:17.172Z,-1.10
2023-03-17T02:37:47.010Z,-1.00
2023-03-17T02:40:15.582Z,-1.00
2023-03-17T02:42:43.392Z,-1.10
2023-03-17T02:45:11.869Z,-1.10
2023-03-17T02:47:40.068Z,-1.10
2023-03-17T02:50:09.928Z,-1.10
2023-03-17T02:52:37.632Z,-1.10
2023-03-17T02:55:05.726Z,-1.10
2023-03-17T02:57:33.341Z,-1.10
2023-03-17T03:00:00.926Z,-1.00
2023-03-17T03:02:28.642Z,-1.10
2023-03-17T03:04:56.464Z,-1.10
2023-03-17T03:07:24.192Z,-1.00
2023-03-17T03:09:51.969Z,-1.10
2023-03-17T03:12:19.624Z,-1.10
2023-03-17T03:14:47.744Z,-1.20
2023-03-17T03:17:16.153Z,-1.30
2023-03-17T03:19:43.872Z,-1.30
2023-03-17T03:22:11.827Z,-1.40
2023-03-17T03:24:39.452Z,-1.40
2023-03-17T03:27:07.373Z,-1.50
2023-03-17T03:29:35.000Z,-1.40
2023-03-17T03:32:02.709Z,-1.50
2023-03-17T03:34:30.762Z,-1.40
2023-03-17T03:36:58.502Z,-1.50
2023-03-17T03:39:26.677Z,-1.60
2023-03-17T03:41:57.519Z,-1.60
2023-03-17T03:44:25.782Z,-1.60
2023-03-17T03:46:53.360Z,-1.60
2023-03-17T03:49:21.403Z,-1.50
2023-03-17T03:51:49.046Z,-1.60
2023-03-17T03:54:16.754Z,-1.70
2023-03-17T03:56:44.273Z,-1.80
2023-03-17T03:59:11.895Z,-1.80
2023-03-17T04:01:40.143Z,-1.80
2023-03-17T04:04:07.871Z,-1.70
2023-03-17T04:06:35.716Z,-1.70
2023-03-17T04:09:03.713Z,-1.70
2023-03-17T04:11:31.587Z,-1.70
2023-03-17T04:13:59.277Z,-1.70
2023-03-17T04:16:27.264Z,-1.60
2023-03-17T04:18:54.971Z,-1.70
2023-03-17T04:21:22.726Z,-1.70
2023-03-17T04:23:50.410Z,-1.70
2023-03-17T04:26:18.885Z,-1.60
2023-03-17T04:28:46.589Z,-1.70
2023-03-17T04:31:14.590Z,-1.80
2023-03-17T04:33:42.481Z,-1.80
2023-03-17T04:36:20.078Z,-1.70
2023-03-17T04:38:47.875Z,-1.80
2023-03-17T04:41:15.945Z,-1.70
2023-03-17T04:43:43.709Z,-1.70
2023-03-17T04:46:11.992Z,-1.60
2023-03-17T04:48:40.070Z,-1.60
2023-03-17T04:51:09.778Z,-1.70
2023-03-17T04:53:38.785Z,-1.70
2023-03-17T04:56:06.628Z,-1.60
2023-03-17T04:58:34.383Z,-1.60
2023-03-17T05:01:03.832Z,-1.70
2023-03-17T05:03:33.468Z,-1.70
2023-03-17T05:06:02.006Z,-1.70
2023-03-17T05:08:30.050Z,-1.60
2023-03-17T05:10:58.666Z,-1.40
2023-03-17T05:13:27.445Z,-1.60
2023-03-17T05:15:56.395Z,-1.50
2023-03-17T05:18:25.791Z,-1.50
2023-03-17T05:20:53.831Z,-1.60
2023-03-17T05:23:22.423Z,-1.40
2023-03-17T05:25:50.724Z,-1.40
2023-03-17T05:28:21.000Z,-1.40
2023-03-17T05:30:49.355Z,-1.20
2023-03-17T05:33:17.604Z,-1.00
2023-03-17T05:35:45.490Z,-1.00
2023-03-17T05:38:15.313Z,-1.10
2023-03-17T05:40:43.600Z,-1.00
2023-03-17T05:43:11.792Z,-0.70
2023-03-17T05:45:39.497Z,-0.50
2023-03-17T05:48:07.998Z,-0.50
2023-03-17T05:50:36.046Z,-0.50
2023-03-17T05:53:03.751Z,-0.40
2023-03-17T05:55:31.442Z,-0.30
2023-03-17T05:58:00.945Z,-0.20
2023-03-17T06:00:29.519Z,-0.10
2023-03-17T06:02:57.549Z,0.10
2023-03-17T06:05:25.223Z,0.10
2023-03-17T06:07:56.267Z,0.10
2023-03-17T06:10:25.065Z,0.30
2023-03-17T06:12:53.354Z,0.40
2023-03-17T06:15:21.404Z,0.50
2023-03-17T06:17:49.097Z,0.70
2023-03-17T06:20:16.859Z,1.00
2023-03-17T06:23:02.283Z,1.30
2023-03-17T06:25:32.034Z,1.60
2023-03-17T06:28:02.683Z,1.90
2023-03-17T06:30:33.090Z,2.00
2023-03-17T06:33:02.125Z,2.20
2023-03-17T06:35:31.295Z,2.40
2023-03-17T06:37:59.867Z,2.50
2023-03-17T06:40:27.714Z,2.60
2023-03-17T06:42:55.720Z,2.80
2023-03-17T06:45:23.536Z,3.00
2023-03-17T06:47:51.300Z,3.00
2023-03-17T06:50:19.074Z,3.20
2023-03-17T06:52:47.102Z,3.40
2023-03-17T06:55:15.423Z,3.50
2023-03-17T06:57:43.487Z,3.80
2023-03-17T07:00:14.367Z,3.80
2023-03-17T07:02:43.200Z,4.00
2023-03-17T07:05:11.073Z,4.10
2023-03-17T07:07:39.007Z,4.10
2023-03-17T07:10:10.548Z,4.20
2023-03-17T07:12:38.556Z,4.40
2023-03-17T07:15:06.772Z,4.50
2023-03-17T07:17:34.624Z,4.60
2023-03-17T07:20:02.370Z,4.70
2023-03-17T07:22:29.969Z,4.80
2023-03-17T07:24:57.777Z,4.80
2023-03-17T07:27:26.710Z,4.90
2023-03-17T07:29:54.599Z,4.60
2023-03-17T07:32:22.239Z,4.70
2023-03-17T07:34:50.191Z,4.80
2023-03-17T07:37:17.969Z,4.80
2023-03-17T07:39:47.426Z,5.00
2023-03-17T07:42:17.177Z,5.20
2023-03-17T07:44:44.953Z,5.20
2023-03-17T07:47:14.303Z,5.30
2023-03-17T07:49:42.586Z,5.50
2023-03-17T07:52:11.529Z,5.50
2023-03-17T07:54:42.241Z,5.60
2023-03-17T07:57:11.662Z,5.60
2023-03-17T07:59:40.107Z,5.70
2023-03-17T08:02:08.604Z,5.70
2023-03-17T08:04:36.498Z,5.80
2023-03-17T08:07:06.410Z,6.10
2023-03-17T08:09:34.153Z,6.00
2023-03-17T08:12:02.075Z,5.70
2023-03-17T08:14:30.542Z,6.00
2023-03-17T08:16:58.812Z,6.40
2023-03-17T08:19:27.159Z,6.00
2023-03-17T08:21:54.784Z,6.10
2023-03-17T08:24:22.543Z,6.60
2023-03-17T08:26:50.497Z,6.60
2023-03-17T08:29:19.049Z,6.50
2023-03-17T08:31:47.226Z,6.70
2023-03-17T08:34:16.330Z,6.50
2023-03-17T08:36:44.266Z,6.60
2023-03-17T08:39:11.957Z,6.60
2023-03-17T08:41:39.688Z,6.90
2023-03-17T08:44:08.989Z,7.00
2023-03-17T08:46:37.582Z,6.90
2023-03-17T08:49:05.219Z,7.00
2023-03-17T08:51:35.999Z,6.60
2023-03-17T08:54:05.901Z,6.90
2023-03-17T08:56:34.502Z,7.10
2023-03-17T08:59:02.269Z,7.40
2023-03-17T09:01:30.026Z,7.30
2023-03-17T09:03:57.835Z,7.20
2023-03-17T09:06:26.459Z,7.20
2023-03-17T09:08:56.965Z,7.60
2023-03-17T09:11:27.984Z,7.30
2023-03-17T09:13:56.686Z,7.30
2023-03-17T09:16:25.707Z,7.40
2023-03-17T09:18:53.946Z,7.30
2023-03-17T09:21:22.405Z,7.60
2023-03-17T09:23:52.579Z,7.60
2023-03-17T09:26:20.724Z,7.70
2023-03-17T09:28:48.890Z,7.80
2023-03-17T09:31:17.273Z,8.20
2023-03-17T09:33:45.707Z,8.00
2023-03-17T09:36:14.345Z,8.10
2023-03-17T09:38:42.509Z,8.20
2023-03-17T09:41:42.738Z,8.10
2023-03-17T09:44:52.261Z,8.10
2023-03-17T09:47:31.695Z,8.10
2023-03-17T09:50:02.182Z,8.70
2023-03-17T09:52:31.971Z,8.80
2023-03-17T09:55:01.275Z,8.70
2023-03-17T09:57:38.144Z,8.70
2023-03-17T10:00:23.516Z,8.60
2023-03-17T10:02:52.458Z,8.00
2023-03-17T10:05:25.149Z,8.20
2023-03-17T10:08:30.823Z,8.20
2023-03-17T10:11:07.066Z,8.70
2023-03-17T10:13:55.881Z,8.80
2023-03-17T10:16:51.545Z,8.80
2023-03-17T10:19:40.856Z,8.20
2023-03-17T10:22:21.996Z,8.10
2023-03-17T10:24:54.500Z,8.40
2023-03-17T10:27:22.574Z,8.50
2023-03-17T10:29:50.978Z,8.70
2023-03-17T10:32:18.726Z,8.30
2023-03-17T10:34:48.773Z,8.70
2023-03-17T10:37:23.117Z,8.50
2023-03-17T10:39:59.917Z,8.60
2023-03-17T10:42:29.630Z,8.80
2023-03-17T10:45:01.736Z,8.60
2023-03-17T10:47:32.699Z,8.70
2023-03-17T10:50:21.662Z,8.80
2023-03-17T10:53:16.510Z,8.90
2023-03-17T10:55:50.671Z,9.00
2023-03-17T10:58:25.050Z,8.90
2023-03-17T11:01:00.421Z,9.10
2023-03-17T11:03:35.366Z,9.30
2023-03-17T11:06:04.706Z,9.30
2023-03-17T11:08:35.794Z,9.30
2023-03-17T11:11:10.100Z,9.40
2023-03-17T11:13:38.145Z,9.10
2023-03-17T11:16:23.524Z,9.20
2023-03-17T11:18:58.119Z,9.00
2023-03-17T11:21:34.116Z,9.40
2023-03-17T11:24:09.413Z,9.10
2023-03-17T11:26:55.734Z,9.40
2023-03-17T11:29:23.849Z,9.10
2023-03-17T11:31:57.608Z,9.40
2023-03-17T11:34:57.262Z,9.60
2023-03-17T11:37:39.977Z,9.30
2023-03-17T11:40:32.262Z,9.30
2023-03-17T11:43:13.454Z,9.60
2023-03-17T11:45:54.076Z,9.50
2023-03-17T11:48:31.017Z,9.40
2023-03-17T11:51:20.281Z,9.40
2023-03-17T11:53:55.832Z,9.20
2023-03-17T11:56:34.445Z,9.40
2023-03-17T11:59:46.546Z,9.50
2023-03-17T12:02:17.491Z,9.50
2023-03-17T12:04:58.415Z,9.30
2023-03-17T12:07:31.560Z,9.30
2023-03-17T12:10:28.990Z,9.10
2023-03-17T12:13:07.431Z,9.30
2023-03-17T12:15:45.845Z,9.70
2023-03-17T12:18:28.376Z,9.60
2023-03-17T12:21:37.210Z,9.60
2023-03-17T12:24:13.385Z,9.60
2023-03-17T12:26:55.395Z,9.40
2023-03-17T12:29:52.643Z,9.50
2023-03-17T12:32:29.431Z,10.20
2023-03-17T12:34:59.934Z,10.00
2023-03-17T12:37:30.276Z,9.60
2023-03-17T12:40:12.488Z,9.60
2023-03-17T12:42:53.808Z,9.60
2023-03-17T12:45:33.771Z,9.80
2023-03-17T12:48:15.974Z,9.90
2023-03-17T12:51:06.845Z,9.70
2023-03-17T12:53:38.889Z,9.70
2023-03-17T12:56:12.004Z,9.70
2023-03-17T12:58:44.338Z,9.60
2023-03-17T13:01:15.032Z,9.50
2023-03-17T13:04:26.475Z,9.90
2023-03-17T13:07:06.634Z,9.90
2023-03-17T13:09:36.578Z,10.10
2023-03-17T13:12:07.349Z,10.00
2023-03-17T13:14:46.019Z,9.80
2023-03-17T13:17:17.095Z,9.70
2023-03-17T13:20:08.208Z,9.70
2023-03-17T13:22:41.723Z,9.40
2023-03-17T13:25:27.583Z,9.70
2023-03-17T13:28:12.579Z,9.90
2023-03-17T13:30:40.315Z,9.90
2023-03-17T13:33:15.746Z,9.60
2023-03-17T13:36:00.658Z,9.50
2023-03-17T13:39:15.009Z,9.70
2023-03-17T13:42:01.115Z,9.70
2023-03-17T13:44:55.703Z,9.80
2023-03-17T13:47:23.517Z,9.60
2023-03-17T13:49:55.848Z,10.00
2023-03-17T13:52:50.516Z,10.40
2023-03-17T13:55:18.264Z,9.90
2023-03-17T13:58:12.237Z,9.90
2023-03-17T14:00:43.837Z,10.00
2023-03-17T14:03:20.081Z,9.90
2023-03-17T14:05:51.514Z,9.60
2023-03-17T14:08:32.000Z,9.60
2023-03-17T14:11:03.297Z,9.70
2023-03-17T14:13:46.949Z,9.80
2023-03-17T14:16:26.855Z,9.70
2023-03-17T14:19:09.793Z,9.70
2023-03-17T14:21:37.379Z,9.90
2023-03-17T14:24:28.842Z,9.90
2023-03-17T14:26:56.913Z,9.90
2023-03-17T14:29:33.769Z,10.20
2023-03-17T14:32:18.273Z,10.10
2023-03-17T14:34:59.395Z,10.30
2023-03-17T14:37:27.956Z,9.80
2023-03-17T14:39:57.833Z,10.10
2023-03-17T14:42:28.698Z,10.20
2023-03-17T14:45:06.689Z,9.80
2023-03-17T14:47:40.099Z,9.60
2023-03-17T14:50:25.684Z,9.60
2023-03-17T14:52:54.089Z,9.60
2023-03-17T14:55:22.272Z,9.70
2023-03-17T14:57:52.704Z,9.90
2023-03-17T15:00:46.182Z,10.20
2023-03-17T15:03:20.711Z,9.80
2023-03-17T15:05:49.562Z,9.80
2023-03-17T15:08:41.463Z,9.60
2023-03-17T15:11:22.747Z,9.50
2023-03-17T15:13:56.128Z,9.60
2023-03-17T15:16:36.400Z,9.60
2023-03-17T15:19:17.740Z,9.30
2023-03-17T15:21:45.457Z,9.40
2023-03-17T15:24:21.985Z,9.40
2023-03-17T15:26:49.825Z,9.60
2023-03-17T15:29:17.818Z,9.80
2023-03-17T15:31:45.740Z,10.20
2023-03-17T15:34:16.099Z,9.80
2023-03-17T15:36:47.575Z,9.60
2023-03-17T15:39:15.508Z,9.50
2023-03-17T15:41:43.235Z,9.40
2023-03-17T15:44:10.965Z,9.40
2023-03-17T15:46:38.692Z,9.40
2023-03-17T15:49:11.293Z,9.40
2023-03-17T15:51:38.895Z,9.30
2023-03-17T15:54:06.672Z,9.40
2023-03-17T15:56:35.646Z,9.40
2023-03-17T15:59:04.807Z,9.20
2023-03-17T16:01:32.634Z,9.40
2023-03-17T16:04:00.388Z,9.40
2023-03-17T16:06:28.085Z,9.30
2023-03-17T16:08:55.892Z,9.20
2023-03-17T16:11:29.322Z,9.10
2023-03-17T16:14:00.477Z,9.00
2023-03-17T16:16:37.174Z,9.00
2023-03-17T16:19:07.310Z,8.90
2023-03-17T16:21:35.054Z,8.70
2023-03-17T16:24:03.301Z,8.80
2023-03-17T16:26:31.763Z,8.60
2023-03-17T16:28:59.500Z,8.60
2023-03-17T16:31:31.000Z,8.70
2023-03-17T16:33:58.937Z,8.80
2023-03-17T16:36:26.733Z,8.60
2023-03-17T16:38:54.560Z,8.50
2023-03-17T16:41:25.296Z,8.50
2023-03-17T16:44:03.346Z,8.50
2023-03-17T16:46:35.532Z,8.20
2023-03-17T16:49:05.011Z,8.10
2023-03-17T16:51:32.672Z,8.00
2023-03-17T16:54:00.428Z,7.50
2023-03-17T16:56:28.381Z,7.20
2023-03-17T16:58:56.304Z,7.10
2023-03-17T17:01:27.027Z,6.70
2023-03-17T17:03:55.913Z,6.40
2023-03-17T17:06:24.823Z,6.50
2023-03-17T17:08:53.150Z,6.40
2023-03-17T17:11:22.968Z,6.20
2023-03-17T17:13:51.889Z,6.10
2023-03-17T17:16:29.827Z,6.20
2023-03-17T17:19:01.462Z,5.90
2023-03-17T17:21:31.181Z,5.70
2023-03-17T17:23:59.322Z,5.70
2023-03-17T17:26:28.900Z,5.60
2023-03-17T17:28:56.989Z,5.40
2023-03-17T17:31:25.691Z,5.50
2023-03-17T17:33:54.017Z,5.40
2023-03-17T17:36:22.029Z,5.40
2023-03-17T17:38:51.842Z,5.50
2023-03-17T17:41:21.816Z,5.50
2023-03-17T17:43:50.973Z,5.30
2023-03-17T17:46:22.570Z,4.90
2023-03-17T17:48:51.314Z,4.70
2023-03-17T17:51:20.186Z,4.60
2023-03-17T17:53:50.432Z,4.60
2023-03-17T17:56:20.374Z,4.70
2023-03-17T17:58:48.949Z,4.60
2023-03-17T18:01:20.213Z,4.60
2023-03-17T18:03:49.641Z,4.40
2023-03-17T18:06:18.606Z,4.40
2023-03-17T18:08:47.716Z,4.40
2023-03-17T18:11:18.194Z,4.40
2023-03-17T18:13:47.323Z,4.40
2023-03-17T18:16:17.474Z,4.00
2023-03-17T18:18:47.592Z,3.90
2023-03-17T18:21:17.107Z,3.80
2023-03-17T18:23:50.306Z,4.00
2023-03-17T18:26:19.130Z,4.00
2023-03-17T18:28:48.996Z,4.10
2023-03-17T18:31:22.961Z,4.10
2023-03-17T18:33:54.048Z,4.00
2023-03-17T18:36:23.208Z,4.10
2023-03-17T18:38:52.563Z,4.10
2023-03-17T18:41:21.224Z,3.90
2023-03-17T18:43:49.455Z,3.90
2023-03-17T18:46:18.882Z,3.80
2023-03-17T18:48:48.166Z,3.70
2023-03-17T18:51:18.046Z,3.80
2023-03-17T18:53:47.627Z,3.70
2023-03-17T18:56:16.597Z,3.60
2023-03-17T18:58:45.934Z,3.50
2023-03-17T19:01:14.928Z,3.50
2023-03-17T19:03:43.409Z,3.50
2023-03-17T19:06:16.537Z,3.60
2023-03-17T19:08:46.471Z,3.30
2023-03-17T19:11:18.453Z,3.20
2023-03-17T19:13:47.988Z,3.20
2023-03-17T19:16:17.257Z,3.00
2023-03-17T19:18:48.214Z,3.10
2023-03-17T19:21:18.251Z,3.20
2023-03-17T19:23:50.818Z,3.10
2023-03-17T19:26:21.248Z,3.30
2023-03-17T19:28:50.305Z,3.40
2023-03-17T19:31:19.499Z,3.40
2023-03-17T19:33:47.856Z,3.30
2023-03-17T19:36:16.721Z,3.40
2023-03-17T19:38:47.019Z,3.40
2023-03-17T19:41:16.471Z,3.30
2023-03-17T19:43:47.236Z,3.30
2023-03-17T19:46:16.820Z,3.10
2023-03-17T19:48:46.105Z,3.00
2023-03-17T19:51:16.401Z,2.80
2023-03-17T19:53:44.793Z,2.70
2023-03-17T19:56:14.754Z,2.70
2023-03-17T19:58:43.653Z,2.60
2023-03-17T20:01:14.834Z,2.40
2023-03-17T20:03:47.683Z,2.30
2023-03-17T20:06:16.882Z,2.40
2023-03-17T20:08:46.700Z,2.50
2023-03-17T20:11:15.578Z,2.40
2023-03-17T20:13:45.545Z,2.40
2023-03-17T20:16:14.927Z,2.40
2023-03-17T20:18:46.205Z,2.50
2023-03-17T20:21:16.286Z,2.50
2023-03-17T20:23:46.942Z,2.40
2023-03-17T20:26:15.267Z,2.40
2023-03-17T20:28:44.002Z,2.30
2023-03-17T20:31:13.207Z,2.30
2023-03-17T20:33:42.454Z,2.20
2023-03-17T20:36:13.446Z,2.10
2023-03-17T20:38:44.274Z,2.10
2023-03-17T20:41:15.764Z,2.10
2023-03-17T20:43:45.682Z,2.10
2023-03-17T20:46:20.276Z,2.10
2023-03-17T20:48:52.623Z,2.30
2023-03-17T20:51:22.880Z,2.50
2023-03-17T20:53:51.454Z,2.50
2023-03-17T20:56:25.058Z,2.40
2023-03-17T20:58:53.450Z,2.30
2023-03-17T21:01:23.048Z,2.30
2023-03-17T21:03:53.268Z,2.40
2023-03-17T21:06:24.158Z,2.40
2023-03-17T21:08:55.625Z,2.40
2023-03-17T21:11:26.932Z,2.30
2023-03-17T21:13:56.811Z,2.20
2023-03-17T21:16:30.097Z,2.10
2023-03-17T21:18:58.064Z,2.00
2023-03-17T21:21:26.899Z,2.00
2023-03-17T21:23:56.452Z,2.20
2023-03-17T21:26:26.028Z,2.40
2023-03-17T21:28:55.158Z,2.30
2023-03-17T21:31:23.621Z,2.40
2023-03-17T21:33:52.407Z,2.40
2023-03-17T21:36:21.377Z,2.40
2023-03-17T21:38:49.480Z,2.40
2023-03-17T21:41:34.456Z,2.40
2023-03-17T21:44:03.779Z,2.30
2023-03-17T21:46:32.138Z,2.20
2023-03-17T21:49:00.504Z,2.10
2023-03-17T21:51:28.599Z,2.00
2023-03-17T21:53:57.831Z,2.00
2023-03-17T21:56:25.526Z,2.10
2023-03-17T21:58:53.220Z,2.10
2023-03-17T22:01:21.907Z,2.10
2023-03-17T22:03:52.531Z,2.00
2023-03-17T22:06:21.646Z,2.20
2023-03-17T22:08:50.922Z,2.10
2023-03-17T22:11:19.705Z,2.00
2023-03-17T22:13:47.851Z,1.90
2023-03-17T22:16:18.513Z,1.90
2023-03-17T22:18:47.611Z,1.90
2023-03-17T22:21:15.557Z,1.90
2023-03-17T22:23:44.559Z,1.80
2023-03-17T22:26:15.082Z,1.90
2023-03-17T22:28:44.798Z,2.00
2023-03-17T22:31:13.921Z,1.80
2023-03-17T22:33:42.024Z,1.90
2023-03-17T22:36:10.447Z,1.70
2023-03-17T22:38:38.421Z,1.80
2023-03-17T22:41:13.773Z,1.70
2023-03-17T22:43:42.414Z,1.70
2023-03-17T22:46:11.277Z,1.70
2023-03-17T22:48:40.541Z,1.70
2023-03-17T22:51:13.229Z,1.60
2023-03-17T22:53:41.460Z,1.70
2023-03-17T22:56:11.097Z,1.60
2023-03-17T22:58:40.058Z,1.60
2023-03-17T23:01:09.093Z,1.50
2023-03-17T23:03:37.248Z,1.50
2023-03-17T23:06:06.782Z,1.30
2023-03-17T23:08:37.373Z,1.40
2023-03-17T23:11:10.630Z,1.40
2023-03-17T23:13:40.196Z,1.50
2023-03-17T23:16:08.865Z,1.50
2023-03-17T23:18:36.787Z,1.40
2023-03-17T23:21:05.492Z,1.40
2023-03-17T23:23:34.281Z,1.30
2023-03-17T23:26:02.305Z,1.10
2023-03-17T23:28:30.100Z,1.10
2023-03-17T23:30:58.663Z,1.10
2023-03-17T23:33:26.850Z,1.30
2023-03-17T23:35:54.656Z,1.20
2023-03-17T23:38:22.609Z,1.30
2023-03-17T23:40:50.978Z,1.10
2023-03-17T23:43:19.626Z,1.30
2023-03-17T23:45:51.160Z,1.20
2023-03-17T23:48:20.921Z,1.10
2023-03-17T23:50:52.565Z,1.20
2023-03-17T23:53:22.026Z,1.20
2023-03-17T23:55:51.507Z,1.20
2023-03-17T23:58:19.757Z,1.20
